Time;durP1;ratioP1;P1;durP2;ratioP2;P2;SDS_P1;SDS_P2;PMS_P1;PMS_P2;Temp;Humidity;BMP_temperature;BMP_pressure;BME280_temperature;BME280_humidity;BME280_pressure;Samples;Min_cycle;Max_cycle;Signal;HPM_P1;HPM_P2
2021/12/02 00:01:28;;;;;;;4.75;1.95;;;8.50;87.20;;;;;;4933592;29;20020;-64
2021/12/02 00:03:55;;;;;;;5.03;1.80;;;8.50;87.00;;;;;;4933466;29;20439;-64
2021/12/02 00:06:21;;;;;;;3.03;1.60;;;8.50;86.70;;;;;;4933601;29;20031;-63
2021/12/02 00:08:48;;;;;;;6.00;1.77;;;8.50;87.10;;;;;;4932195;29;20043;-64
2021/12/02 00:11:15;;;;;;;3.33;1.85;;;8.50;87.00;;;;;;4933299;29;20483;-64
2021/12/02 00:13:53;;;;;;;3.95;1.10;;;8.50;87.00;;;;;;4933973;29;20472;-63
2021/12/02 00:16:35;;;;;;;6.07;1.25;;;8.50;86.80;;;;;;4933630;29;20046;-63
2021/12/02 00:21:50;;;;;;;2.00;0.73;;;8.40;86.50;;;;;;4934332;29;20099;-64
2021/12/02 00:24:22;;;;;;;4.03;1.42;;;8.40;87.00;;;;;;4932543;29;20036;-64
2021/12/02 00:26:49;;;;;;;6.40;1.10;;;8.40;87.00;;;;;;4933946;29;20024;-64
2021/12/02 00:29:19;;;;;;;2.17;1.25;;;8.40;87.00;;;;;;4931522;28;20046;-64
2021/12/02 00:31:46;;;;;;;2.28;1.05;;;8.30;86.70;;;;;;4933999;29;20024;-63
2021/12/02 00:34:13;;;;;;;2.15;1.00;;;8.30;86.50;;;;;;4933940;29;20050;-62
2021/12/02 00:36:39;;;;;;;2.40;0.98;;;8.30;86.00;;;;;;4933705;29;20058;-64
2021/12/02 00:39:14;;;;;;;3.45;1.08;;;8.30;86.00;;;;;;4934176;29;20043;-63
2021/12/02 00:41:40;;;;;;;2.72;1.00;;;8.20;86.00;;;;;;4933930;29;20451;-63
2021/12/02 00:44:07;;;;;;;8.63;1.67;;;8.10;85.90;;;;;;4933700;29;20454;-63
2021/12/02 00:46:34;;;;;;;3.80;0.95;;;8.20;86.10;;;;;;4933127;28;20031;-63
2021/12/02 00:49:03;;;;;;;3.40;1.10;;;8.10;86.40;;;;;;4933137;29;20047;-64
2021/12/02 00:51:31;;;;;;;2.78;1.13;;;8.20;86.60;;;;;;4933430;29;20035;-63
2021/12/02 00:54:00;;;;;;;2.60;0.90;;;8.20;87.00;;;;;;4937359;29;20044;-63
2021/12/02 00:56:26;;;;;;;4.90;1.20;;;8.20;87.20;;;;;;4933362;29;20035;-64
2021/12/02 00:58:53;;;;;;;4.35;1.10;;;8.20;88.00;;;;;;4933749;29;20031;-63
2021/12/02 01:01:20;;;;;;;2.85;1.60;;;8.20;89.00;;;;;;4933514;29;20039;-63
2021/12/02 01:03:50;;;;;;;4.82;1.27;;;8.20;90.40;;;;;;4932649;29;20118;-63
2021/12/02 01:06:15;;;;;;;1.38;1.00;;;8.10;90.70;;;;;;4931483;29;20510;-63
2021/12/02 01:08:41;;;;;;;3.78;1.17;;;8.00;91.60;;;;;;4933426;29;20039;-63
2021/12/02 01:11:09;;;;;;;2.72;0.85;;;7.90;91.90;;;;;;4933130;29;20044;-63
2021/12/02 01:13:35;;;;;;;3.47;0.90;;;7.80;92.10;;;;;;4932786;29;20036;-63
2021/12/02 01:16:00;;;;;;;1.20;0.65;;;7.70;92.70;;;;;;4933653;29;20036;-63
2021/12/02 01:18:26;;;;;;;2.20;0.70;;;7.60;93.00;;;;;;4933552;29;20031;-63
2021/12/02 01:20:53;;;;;;;2.05;0.90;;;7.40;93.30;;;;;;4945903;28;20149;-63
2021/12/02 01:23:20;;;;;;;1.77;1.02;;;7.30;93.20;;;;;;4933340;29;20042;-63
2021/12/02 01:25:52;;;;;;;2.90;0.85;;;7.30;93.30;;;;;;4933365;29;20522;-63
2021/12/02 01:28:18;;;;;;;2.70;0.75;;;7.20;93.40;;;;;;4947988;28;20039;-63
2021/12/02 01:30:46;;;;;;;0.70;0.70;;;7.10;93.40;;;;;;4934014;29;20557;-63
2021/12/02 01:33:15;;;;;;;2.60;0.80;;;7.00;93.70;;;;;;4936436;29;20034;-63
2021/12/02 01:35:43;;;;;;;1.05;0.70;;;6.90;93.60;;;;;;4937138;29;20399;-63
2021/12/02 01:41:37;;;;;;;0.85;0.60;;;6.80;94.00;;;;;;4936747;29;20383;-63
2021/12/02 01:44:10;;;;;;;2.90;0.57;;;6.70;94.30;;;;;;4936638;29;20184;-63
2021/12/02 01:46:37;;;;;;;1.10;0.60;;;6.60;94.10;;;;;;4936150;29;20040;-62
2021/12/02 01:49:04;;;;;;;0.70;0.70;;;6.60;94.10;;;;;;4936656;29;20047;-63
2021/12/02 01:54:41;;;;;;;0.80;0.80;;;6.50;93.90;;;;;;4937992;29;20499;-63
2021/12/02 01:57:07;;;;;;;0.90;0.70;;;6.50;93.70;;;;;;4936282;29;20046;-62
2021/12/02 01:59:35;;;;;;;1.02;0.63;;;6.50;93.50;;;;;;4951155;29;20043;-63
2021/12/02 02:02:04;;;;;;;0.90;0.70;;;6.40;93.40;;;;;;4936570;29;20024;-62
2021/12/02 02:04:30;;;;;;;1.45;0.80;;;6.40;93.30;;;;;;4936352;29;20044;-63
2021/12/02 02:07:01;;;;;;;3.03;1.20;;;6.40;93.30;;;;;;4935282;29;20642;-62
2021/12/02 02:09:33;;;;;;;3.80;1.00;;;6.30;93.00;;;;;;4934770;28;20035;-63
2021/12/02 02:12:06;;;;;;;0.68;0.68;;;6.30;92.80;;;;;;4936444;29;20024;-62
2021/12/02 02:14:32;;;;;;;0.70;0.60;;;6.30;92.70;;;;;;4936495;29;20048;-62
2021/12/02 02:17:13;;;;;;;1.75;0.90;;;6.30;92.70;;;;;;4935567;29;20043;-63
2021/12/02 02:19:39;;;;;;;1.02;0.70;;;6.30;92.80;;;;;;4943190;29;20031;-63
2021/12/02 02:22:05;;;;;;;2.38;0.70;;;6.30;92.70;;;;;;4936209;29;20042;-63
2021/12/02 02:24:31;;;;;;;1.05;0.73;;;6.30;92.60;;;;;;4936017;29;20416;-62
2021/12/02 02:26:56;;;;;;;1.13;0.80;;;6.30;92.50;;;;;;4935468;29;20032;-63
2021/12/02 02:29:22;;;;;;;1.23;0.65;;;6.20;92.40;;;;;;4935000;29;20042;-64
2021/12/02 02:31:49;;;;;;;1.10;0.50;;;6.20;92.40;;;;;;4935315;29;20031;-63
2021/12/02 02:34:14;;;;;;;1.33;0.77;;;6.20;92.50;;;;;;4934828;29;20035;-64
2021/12/02 02:36:50;;;;;;;1.33;0.57;;;6.20;92.60;;;;;;4936099;29;20036;-63
2021/12/02 02:39:16;;;;;;;1.45;0.85;;;6.20;92.80;;;;;;4934197;29;20030;-64
2021/12/02 02:41:43;;;;;;;1.67;0.90;;;6.20;92.90;;;;;;4935411;29;20114;-64
2021/12/02 02:44:09;;;;;;;1.33;0.90;;;6.20;93.00;;;;;;4934081;29;20022;-62
2021/12/02 02:46:37;;;;;;;1.40;0.65;;;6.20;93.10;;;;;;4935621;29;20039;-62
2021/12/02 02:49:07;;;;;;;1.98;1.00;;;6.20;93.10;;;;;;4935192;29;20040;-62
2021/12/02 02:51:34;;;;;;;4.40;1.15;;;6.10;93.10;;;;;;4933744;29;20031;-62
2021/12/02 02:54:04;;;;;;;3.80;1.00;;;6.10;93.00;;;;;;4935404;29;20055;-63
2021/12/02 02:56:31;;;;;;;2.03;1.02;;;6.10;93.00;;;;;;4935206;29;20106;-61
2021/12/02 02:59:07;;;;;;;3.50;0.90;;;6.10;93.20;;;;;;4935082;29;20028;-63
2021/12/02 03:06:51;;;;;;;7.47;1.05;;;6.10;93.00;;;;;;4934841;29;20052;-62
2021/12/02 03:09:39;;;;;;;3.20;0.95;;;6.20;93.00;;;;;;4934666;29;20071;-62
2021/12/02 03:14:52;;;;;;;2.13;0.98;;;6.20;92.90;;;;;;4930030;29;20043;-62
2021/12/02 03:17:17;;;;;;;2.40;0.88;;;6.20;92.90;;;;;;4934432;29;20106;-62
2021/12/02 03:19:45;;;;;;;3.50;1.35;;;6.20;93.00;;;;;;4935573;29;20114;-63
2021/12/02 03:22:12;;;;;;;2.00;0.80;;;6.20;93.00;;;;;;4933786;29;20031;-62
2021/12/02 03:24:41;;;;;;;2.17;0.90;;;6.20;93.10;;;;;;4935300;29;20032;-62
2021/12/02 03:27:07;;;;;;;3.90;1.08;;;6.20;93.20;;;;;;4934192;29;20032;-62
2021/12/02 03:29:33;;;;;;;1.85;1.02;;;6.20;93.30;;;;;;4933980;29;20059;-62
2021/12/02 03:31:59;;;;;;;5.07;1.05;;;6.20;93.30;;;;;;4934559;29;20024;-62
2021/12/02 03:34:24;;;;;;;2.80;0.90;;;6.20;93.30;;;;;;4933802;29;20043;-62
2021/12/02 03:36:51;;;;;;;3.97;1.92;;;6.20;93.40;;;;;;4933584;29;20024;-62
2021/12/02 03:39:16;;;;;;;4.57;1.55;;;6.20;93.40;;;;;;4934720;29;20090;-63
2021/12/02 03:41:42;;;;;;;4.00;1.08;;;6.10;93.40;;;;;;4934009;29;20031;-63
2021/12/02 03:44:08;;;;;;;1.77;1.00;;;6.10;93.30;;;;;;4934478;29;20091;-63
2021/12/02 03:46:37;;;;;;;3.55;1.10;;;6.10;93.20;;;;;;4933949;29;20024;-63
2021/12/02 03:49:04;;;;;;;2.47;0.90;;;6.20;93.20;;;;;;4940516;29;20128;-63
2021/12/02 03:51:30;;;;;;;2.40;1.15;;;6.10;93.10;;;;;;4933677;29;20035;-63
2021/12/02 03:53:56;;;;;;;3.17;1.00;;;6.10;93.10;;;;;;4933070;29;20039;-63
2021/12/02 03:56:22;;;;;;;1.73;1.02;;;6.10;93.10;;;;;;4934231;29;20395;-63
2021/12/02 03:58:50;;;;;;;2.58;1.20;;;6.10;93.20;;;;;;4933859;29;20071;-62
2021/12/02 04:01:17;;;;;;;1.98;1.05;;;6.10;93.20;;;;;;4934324;29;20035;-63
2021/12/02 04:03:43;;;;;;;1.60;1.10;;;6.10;93.20;;;;;;4934197;29;20680;-62
2021/12/02 04:06:09;;;;;;;10.02;3.03;;;6.10;93.30;;;;;;4933410;29;20027;-63
2021/12/02 04:08:45;;;;;;;1.08;0.60;;;6.10;93.30;;;;;;4933072;29;20098;-63
2021/12/02 04:11:34;;;;;;;1.85;1.00;;;6.10;93.30;;;;;;4933745;29;20028;-62
2021/12/02 04:14:14;;;;;;;2.65;1.13;;;6.10;93.20;;;;;;4933593;29;20066;-63
2021/12/02 04:16:40;;;;;;;2.63;1.02;;;6.00;93.20;;;;;;4934254;29;20039;-63
2021/12/02 04:19:10;;;;;;;2.08;1.00;;;6.00;93.20;;;;;;4929043;29;20044;-63
2021/12/02 04:21:36;;;;;;;3.63;0.88;;;6.00;93.10;;;;;;4916618;29;20383;-63
2021/12/02 04:24:02;;;;;;;3.45;0.93;;;6.00;93.10;;;;;;4932955;29;20456;-63
2021/12/02 04:26:31;;;;;;;3.58;1.00;;;6.00;93.10;;;;;;4934395;29;20032;-63
2021/12/02 04:28:56;;;;;;;1.55;0.70;;;6.00;93.10;;;;;;4933433;29;20042;-63
2021/12/02 04:31:22;;;;;;;2.33;0.80;;;6.00;93.00;;;;;;4933365;29;20110;-63
2021/12/02 04:33:47;;;;;;;3.97;0.80;;;6.00;93.00;;;;;;4933461;29;20028;-63
2021/12/02 04:36:13;;;;;;;1.52;1.05;;;5.90;92.90;;;;;;4933997;29;20031;-63
2021/12/02 04:38:38;;;;;;;2.83;1.08;;;5.90;92.90;;;;;;4933472;29;20399;-63
2021/12/02 04:41:04;;;;;;;1.50;0.82;;;5.90;92.90;;;;;;4934178;29;20036;-63
2021/12/02 04:43:30;;;;;;;1.48;0.90;;;5.90;92.90;;;;;;4933557;29;20405;-63
2021/12/02 04:45:56;;;;;;;1.85;1.02;;;5.80;92.90;;;;;;4933070;29;20038;-63
2021/12/02 04:48:22;;;;;;;1.38;0.85;;;5.80;92.90;;;;;;4933047;29;20442;-63
2021/12/02 04:50:48;;;;;;;3.35;1.73;;;5.80;92.90;;;;;;4934165;29;20054;-63
2021/12/02 04:53:14;;;;;;;4.30;1.10;;;5.80;92.90;;;;;;4932396;29;20071;-63
2021/12/02 04:55:40;;;;;;;1.95;1.15;;;5.80;92.90;;;;;;4933211;29;20031;-63
2021/12/02 04:58:06;;;;;;;0.80;0.80;;;5.80;92.90;;;;;;4932489;29;20050;-63
2021/12/02 05:00:32;;;;;;;1.70;0.80;;;5.80;92.90;;;;;;4932220;29;20064;-62
2021/12/02 05:02:58;;;;;;;2.40;0.90;;;5.80;93.00;;;;;;4933162;29;20035;-62
2021/12/02 05:05:24;;;;;;;1.52;1.20;;;5.80;92.90;;;;;;4934134;29;20111;-63
2021/12/02 05:07:53;;;;;;;2.38;0.98;;;5.80;92.90;;;;;;4936379;29;20570;-64
2021/12/02 05:10:18;;;;;;;3.28;1.10;;;5.70;92.80;;;;;;4936802;29;20039;-63
2021/12/02 05:12:44;;;;;;;5.22;1.10;;;5.70;92.70;;;;;;4936152;29;20031;-63
2021/12/02 05:15:10;;;;;;;2.70;1.35;;;5.70;92.70;;;;;;4935773;29;20036;-63
2021/12/02 05:17:35;;;;;;;1.95;0.95;;;5.70;92.70;;;;;;4936764;29;20110;-63
2021/12/02 05:20:01;;;;;;;2.90;1.10;;;5.60;92.70;;;;;;4937405;29;20038;-63
2021/12/02 05:22:26;;;;;;;2.88;1.42;;;5.60;92.70;;;;;;4934501;29;20031;-62
2021/12/02 05:24:52;;;;;;;1.20;1.00;;;5.60;92.80;;;;;;4937098;29;20028;-62
2021/12/02 05:27:17;;;;;;;1.15;0.88;;;5.60;92.80;;;;;;4935033;29;20020;-63
2021/12/02 05:29:43;;;;;;;2.35;1.05;;;5.60;92.80;;;;;;4935638;29;20116;-62
2021/12/02 05:32:08;;;;;;;2.08;1.02;;;5.60;92.80;;;;;;4935541;29;20372;-62
2021/12/02 05:34:34;;;;;;;1.35;0.95;;;5.60;92.80;;;;;;4934359;29;20036;-63
2021/12/02 05:37:00;;;;;;;3.55;1.15;;;5.60;92.80;;;;;;4934511;29;20059;-63
2021/12/02 05:39:25;;;;;;;2.22;0.93;;;5.50;92.90;;;;;;4935939;29;20439;-62
2021/12/02 05:41:54;;;;;;;1.80;0.90;;;5.50;92.90;;;;;;4936331;29;20416;-63
2021/12/02 05:44:21;;;;;;;2.28;0.90;;;5.50;93.00;;;;;;4937392;29;20321;-63
2021/12/02 05:46:46;;;;;;;3.35;1.08;;;5.50;93.00;;;;;;4934382;29;20054;-63
2021/12/02 05:49:12;;;;;;;2.28;1.30;;;5.60;93.00;;;;;;4935365;29;20039;-63
2021/12/02 05:51:37;;;;;;;2.75;1.00;;;5.50;92.90;;;;;;4934688;29;20038;-63
2021/12/02 05:54:02;;;;;;;3.17;1.00;;;5.50;92.80;;;;;;4933633;29;20074;-63
2021/12/02 05:56:28;;;;;;;2.08;0.98;;;5.50;92.70;;;;;;4934372;29;20027;-62
2021/12/02 05:58:53;;;;;;;5.80;1.45;;;5.50;92.70;;;;;;4934698;29;20078;-62
2021/12/02 06:01:19;;;;;;;2.00;1.30;;;5.50;92.70;;;;;;4934129;29;20074;-63
2021/12/02 06:03:45;;;;;;;2.67;1.02;;;5.60;92.80;;;;;;4935567;29;20475;-63
2021/12/02 06:06:10;;;;;;;4.32;2.42;;;5.60;92.80;;;;;;4935948;29;20110;-63
2021/12/02 06:08:37;;;;;;;2.75;1.67;;;5.50;92.80;;;;;;4936158;29;20067;-62
2021/12/02 06:11:02;;;;;;;4.60;1.23;;;5.50;92.90;;;;;;4935861;29;20035;-62
2021/12/02 06:13:28;;;;;;;1.55;0.90;;;5.50;92.80;;;;;;4935673;29;20024;-62
2021/12/02 06:15:53;;;;;;;4.40;1.67;;;5.50;92.90;;;;;;4935454;29;20102;-64
2021/12/02 06:18:19;;;;;;;4.53;1.27;;;5.50;93.10;;;;;;4934011;29;20019;-62
2021/12/02 06:20:50;;;;;;;3.40;1.30;;;5.60;93.10;;;;;;4936147;29;20394;-62
2021/12/02 06:23:16;;;;;;;3.60;1.20;;;5.70;93.10;;;;;;4935761;29;20031;-62
2021/12/02 06:25:45;;;;;;;2.85;1.00;;;5.70;92.90;;;;;;4935560;29;20094;-62
2021/12/02 06:28:10;;;;;;;4.47;1.83;;;5.70;92.80;;;;;;4935591;29;20039;-62
2021/12/02 06:30:36;;;;;;;3.33;2.00;;;5.70;92.70;;;;;;4935891;29;20530;-63
2021/12/02 06:33:01;;;;;;;4.32;1.50;;;5.70;92.50;;;;;;4936450;29;20039;-63
2021/12/02 06:35:28;;;;;;;2.63;1.10;;;5.70;92.60;;;;;;4935908;28;20031;-62
2021/12/02 06:37:53;;;;;;;2.95;1.33;;;5.70;92.40;;;;;;4934694;29;20612;-62
2021/12/02 06:40:19;;;;;;;1.13;0.90;;;5.80;92.40;;;;;;4934867;29;20219;-62
2021/12/02 06:42:44;;;;;;;3.50;1.30;;;5.70;92.20;;;;;;4935005;29;20074;-63
2021/12/02 06:45:11;;;;;;;2.08;1.00;;;5.60;92.00;;;;;;4950954;29;20030;-63
2021/12/02 06:47:41;;;;;;;3.58;1.05;;;5.60;92.00;;;;;;4932602;29;20138;-63
2021/12/02 06:50:12;;;;;;;1.92;1.10;;;5.60;92.10;;;;;;4932212;29;20038;-62
2021/12/02 06:52:38;;;;;;;1.92;1.15;;;5.60;92.20;;;;;;4933559;29;20027;-66
2021/12/02 06:55:04;;;;;;;3.63;1.50;;;5.60;92.20;;;;;;4936354;29;20677;-63
2021/12/02 06:57:30;;;;;;;4.32;1.25;;;5.60;92.20;;;;;;4934567;29;20118;-64
2021/12/02 06:59:56;;;;;;;2.35;1.17;;;5.60;92.30;;;;;;4935970;29;20479;-64
2021/12/02 07:02:21;;;;;;;2.22;1.05;;;5.60;92.30;;;;;;4933622;29;20498;-63
2021/12/02 07:04:50;;;;;;;2.50;1.10;;;5.60;92.10;;;;;;4934938;29;20455;-64
2021/12/02 07:07:15;;;;;;;2.33;0.85;;;5.50;92.10;;;;;;4934572;29;20039;-63
2021/12/02 07:09:41;;;;;;;1.90;1.05;;;5.50;92.10;;;;;;4949337;29;20367;-63
2021/12/02 07:12:08;;;;;;;3.53;1.13;;;5.50;92.10;;;;;;4933220;29;20035;-64
2021/12/02 07:14:33;;;;;;;2.00;1.13;;;5.50;92.10;;;;;;4934502;29;20027;-64
2021/12/02 07:16:59;;;;;;;3.17;1.23;;;5.40;92.00;;;;;;4929255;29;20030;-63
2021/12/02 07:19:25;;;;;;;2.20;1.20;;;5.40;92.00;;;;;;4932427;29;20027;-63
2021/12/02 07:21:51;;;;;;;3.08;1.20;;;5.40;92.00;;;;;;4937658;29;20031;-63
2021/12/02 07:24:16;;;;;;;1.80;1.13;;;5.30;91.80;;;;;;4933518;29;20035;-63
2021/12/02 07:26:46;;;;;;;4.10;1.08;;;5.40;92.00;;;;;;4935075;29;20030;-63
2021/12/02 07:29:14;;;;;;;4.15;1.52;;;5.40;91.90;;;;;;4933725;29;20039;-63
2021/12/02 07:31:41;;;;;;;5.07;1.95;;;5.40;91.90;;;;;;4933758;29;20040;-64
2021/12/02 07:34:08;;;;;;;3.65;1.35;;;5.40;91.80;;;;;;4934389;29;20062;-64
2021/12/02 07:36:34;;;;;;;5.38;2.05;;;5.40;91.80;;;;;;4934515;29;20032;-63
2021/12/02 07:39:02;;;;;;;3.25;1.40;;;5.40;91.70;;;;;;4933116;29;20441;-63
2021/12/02 07:41:28;;;;;;;1.92;1.05;;;5.30;91.80;;;;;;4931403;29;20036;-64
2021/12/02 07:43:53;;;;;;;2.85;1.30;;;5.40;91.70;;;;;;4931756;29;20119;-63
2021/12/02 07:46:19;;;;;;;3.40;1.25;;;5.30;91.80;;;;;;4932967;28;20027;-62
2021/12/02 07:48:44;;;;;;;3.20;1.20;;;5.30;91.80;;;;;;4930159;29;20403;-62
2021/12/02 07:51:12;;;;;;;3.03;2.13;;;5.30;91.80;;;;;;4927609;29;20036;-61
2021/12/02 07:53:47;;;;;;;2.28;1.13;;;5.40;91.80;;;;;;4929138;29;20024;-62
2021/12/02 07:56:16;;;;;;;3.15;1.63;;;5.40;91.70;;;;;;4926153;29;20035;-63
2021/12/02 07:58:44;;;;;;;1.17;1.08;;;5.40;91.60;;;;;;4926166;29;20054;-62
2021/12/02 08:01:10;;;;;;;3.03;1.38;;;5.50;91.70;;;;;;4939506;28;20094;-62
2021/12/02 08:03:36;;;;;;;5.90;1.67;;;5.50;91.60;;;;;;4930714;29;20034;-62
2021/12/02 08:06:02;;;;;;;2.92;1.40;;;5.50;91.70;;;;;;4932682;29;20034;-61
2021/12/02 08:08:27;;;;;;;4.35;1.70;;;5.60;91.70;;;;;;4947099;28;20028;-62
2021/12/02 08:10:53;;;;;;;3.55;1.73;;;5.60;91.60;;;;;;4933348;29;20433;-62
2021/12/02 08:13:25;;;;;;;3.83;1.30;;;5.60;91.50;;;;;;4932511;29;20019;-62
2021/12/02 08:15:50;;;;;;;2.88;1.25;;;5.60;91.60;;;;;;4932840;29;20196;-61
2021/12/02 08:18:16;;;;;;;2.50;1.40;;;5.70;91.40;;;;;;4930265;29;20031;-61
2021/12/02 08:20:41;;;;;;;2.65;1.40;;;5.70;91.40;;;;;;4927618;29;20036;-61
2021/12/02 08:23:06;;;;;;;6.80;1.80;;;5.70;91.40;;;;;;4930629;29;20032;-61
2021/12/02 08:25:32;;;;;;;2.42;1.60;;;5.70;91.50;;;;;;4931948;29;20027;-62
2021/12/02 08:28:00;;;;;;;4.55;1.77;;;5.80;91.40;;;;;;4930527;29;20055;-62
2021/12/02 08:30:27;;;;;;;2.92;1.50;;;5.80;91.50;;;;;;4930437;29;20040;-61
2021/12/02 08:32:54;;;;;;;3.33;1.60;;;5.80;91.20;;;;;;4927983;29;20152;-62
2021/12/02 08:35:20;;;;;;;3.10;1.40;;;5.90;91.30;;;;;;4928915;29;20479;-62
2021/12/02 08:37:49;;;;;;;2.90;2.08;;;5.90;91.40;;;;;;4930739;29;20054;-62
2021/12/02 08:40:18;;;;;;;2.75;1.05;;;5.90;91.00;;;;;;4932953;29;20028;-62
2021/12/02 08:42:45;;;;;;;3.70;1.40;;;5.90;91.20;;;;;;4937033;29;20087;-62
2021/12/02 08:45:15;;;;;;;2.55;1.20;;;5.80;90.60;;;;;;4934224;29;20159;-62
2021/12/02 08:47:44;;;;;;;5.63;1.50;;;5.80;90.70;;;;;;4934273;28;20561;-62
2021/12/02 08:50:15;;;;;;;3.38;1.80;;;5.80;90.80;;;;;;4934544;29;20043;-63
2021/12/02 08:52:44;;;;;;;3.50;1.40;;;5.90;91.00;;;;;;4934478;29;20554;-62
2021/12/02 08:55:10;;;;;;;3.35;1.30;;;5.90;90.80;;;;;;4939627;29;20083;-61
2021/12/02 08:57:36;;;;;;;3.60;1.10;;;5.90;90.60;;;;;;4935020;29;20055;-61
2021/12/02 09:00:06;;;;;;;4.50;1.08;;;5.90;90.50;;;;;;4934441;29;20119;-62
2021/12/02 09:02:32;;;;;;;2.88;1.23;;;5.90;90.50;;;;;;4932974;29;20487;-62
2021/12/02 09:04:57;;;;;;;3.55;1.25;;;6.00;90.60;;;;;;4934969;29;20023;-61
2021/12/02 09:07:23;;;;;;;2.20;1.00;;;6.00;90.40;;;;;;4933961;29;20032;-62
2021/12/02 09:09:49;;;;;;;2.10;1.10;;;6.00;89.50;;;;;;4934232;29;20050;-62
2021/12/02 09:12:14;;;;;;;4.03;1.25;;;5.80;89.20;;;;;;4931796;29;20498;-62
2021/12/02 09:14:40;;;;;;;2.67;1.25;;;5.80;90.10;;;;;;4933345;29;20039;-62
2021/12/02 09:17:06;;;;;;;2.53;1.33;;;5.90;89.60;;;;;;4931799;29;20511;-62
2021/12/02 09:19:31;;;;;;;5.38;1.48;;;5.90;90.00;;;;;;4926643;29;20495;-62
2021/12/02 09:21:57;;;;;;;2.40;1.20;;;5.90;90.10;;;;;;4930451;29;20031;-62
2021/12/02 09:24:22;;;;;;;4.57;1.77;;;5.80;89.80;;;;;;4928343;29;20031;-61
2021/12/02 09:26:50;;;;;;;3.30;1.30;;;5.90;89.50;;;;;;4933293;29;20063;-62
2021/12/02 09:29:17;;;;;;;2.58;1.40;;;5.80;89.10;;;;;;4935303;29;20118;-62
2021/12/02 09:31:43;;;;;;;2.75;1.35;;;5.80;89.50;;;;;;4933642;29;20047;-62
2021/12/02 09:34:09;;;;;;;2.10;1.20;;;5.80;89.50;;;;;;4934534;29;20030;-62
2021/12/02 09:36:35;;;;;;;2.30;1.10;;;5.80;89.50;;;;;;4934791;29;20463;-62
2021/12/02 09:39:02;;;;;;;1.77;1.10;;;5.80;88.80;;;;;;4936262;29;20102;-62
2021/12/02 09:41:27;;;;;;;3.95;1.40;;;5.80;88.80;;;;;;4935348;29;20034;-62
2021/12/02 09:43:53;;;;;;;4.70;2.53;;;5.80;88.50;;;;;;4933958;29;20483;-62
2021/12/02 09:46:19;;;;;;;4.28;1.30;;;5.80;88.60;;;;;;4935717;29;20466;-62
2021/12/02 09:48:45;;;;;;;7.50;2.10;;;5.70;87.90;;;;;;4932755;29;20051;-62
2021/12/02 09:51:12;;;;;;;2.40;1.23;;;5.80;88.00;;;;;;4927805;29;20028;-62
2021/12/02 09:54:01;;;;;;;3.08;1.30;;;5.70;87.60;;;;;;4927379;29;20020;-62
2021/12/02 09:56:32;;;;;;;2.67;1.33;;;5.70;88.00;;;;;;4938702;29;20070;-62
2021/12/02 10:01:51;;;;;;;2.97;1.10;;;5.80;87.50;;;;;;4932034;29;20068;-63
2021/12/02 10:04:17;;;;;;;5.45;1.35;;;5.70;87.00;;;;;;4927968;29;20031;-63
2021/12/02 10:06:44;;;;;;;2.72;1.35;;;5.70;86.70;;;;;;4927048;29;20086;-62
2021/12/02 10:09:21;;;;;;;2.60;1.40;;;5.70;87.10;;;;;;4927494;29;20043;-63
2021/12/02 10:11:52;;;;;;;2.85;1.35;;;5.70;86.70;;;;;;4927715;29;20423;-62
2021/12/02 10:14:25;;;;;;;3.00;1.30;;;5.70;86.80;;;;;;4927582;29;20039;-63
2021/12/02 10:17:21;;;;;;;5.40;1.55;;;5.70;86.60;;;;;;4930929;29;20027;-63
2021/12/02 10:20:25;;;;;;;3.28;1.60;;;5.70;86.50;;;;;;4926419;29;20400;-63
2021/12/02 10:23:20;;;;;;;3.88;1.60;;;5.70;86.00;;;;;;4932494;29;20099;-62
2021/12/02 10:25:58;;;;;;;2.72;1.27;;;5.70;86.50;;;;;;4934854;29;20040;-62
2021/12/02 10:28:24;;;;;;;3.10;1.40;;;5.70;86.70;;;;;;4932830;29;20063;-62
2021/12/02 10:30:59;;;;;;;6.30;1.85;;;5.70;86.90;;;;;;4939260;28;20040;-62
2021/12/02 10:33:57;;;;;;;3.22;1.42;;;5.80;86.80;;;;;;4933319;29;20119;-63
2021/12/02 10:36:34;;;;;;;2.75;1.40;;;5.80;86.50;;;;;;4923253;29;20038;-63
2021/12/02 10:39:09;;;;;;;5.05;2.08;;;5.80;87.00;;;;;;4933928;29;20031;-62
2021/12/02 10:41:35;;;;;;;3.53;1.20;;;5.80;87.00;;;;;;4926911;29;20024;-62
2021/12/02 10:44:04;;;;;;;2.10;1.30;;;5.80;86.50;;;;;;4932517;29;20034;-62
2021/12/02 10:46:30;;;;;;;3.88;1.23;;;5.80;87.20;;;;;;4934061;29;20055;-63
2021/12/02 10:48:55;;;;;;;3.15;1.23;;;5.80;85.90;;;;;;4933400;29;20123;-62
2021/12/02 10:51:40;;;;;;;3.60;1.30;;;5.80;86.40;;;;;;4933449;29;20122;-62
2021/12/02 10:54:14;;;;;;;5.72;1.60;;;5.80;86.40;;;;;;4932439;29;20055;-61
2021/12/02 10:56:43;;;;;;;6.38;1.75;;;5.80;86.50;;;;;;4941163;29;20047;-63
2021/12/02 10:59:33;;;;;;;7.18;1.70;;;5.80;86.60;;;;;;4930431;29;20031;-62
2021/12/02 11:02:08;;;;;;;3.25;1.35;;;5.80;86.60;;;;;;4934364;29;20024;-62
2021/12/02 11:04:37;;;;;;;3.13;1.50;;;5.90;86.50;;;;;;4943464;28;20035;-62
2021/12/02 11:07:11;;;;;;;6.93;1.80;;;5.90;86.90;;;;;;4938697;29;20107;-61
2021/12/02 11:09:38;;;;;;;3.03;1.48;;;5.90;87.20;;;;;;4935003;29;20078;-61
2021/12/02 11:12:08;;;;;;;3.75;1.85;;;6.00;87.10;;;;;;4934067;29;20028;-62
2021/12/02 11:14:40;;;;;;;4.10;1.58;;;6.10;87.00;;;;;;4935278;29;20042;-63
2021/12/02 11:17:16;;;;;;;3.33;1.70;;;6.10;86.80;;;;;;4935095;29;20028;-62
2021/12/02 11:19:47;;;;;;;3.20;1.50;;;6.20;86.70;;;;;;4934709;29;20127;-63
2021/12/02 11:22:16;;;;;;;3.63;1.20;;;6.10;86.30;;;;;;4927927;29;20091;-63
2021/12/02 11:24:45;;;;;;;3.33;1.70;;;6.10;86.20;;;;;;4939889;28;20040;-63
2021/12/02 11:27:21;;;;;;;3.42;1.45;;;6.20;85.80;;;;;;4931510;29;20028;-63
2021/12/02 11:29:57;;;;;;;4.00;1.67;;;6.20;85.20;;;;;;4933568;29;20051;-64
2021/12/02 11:32:22;;;;;;;4.00;2.10;;;6.10;84.80;;;;;;4932105;29;20028;-63
2021/12/02 11:35:00;;;;;;;4.70;1.85;;;6.10;85.20;;;;;;4931460;29;20028;-63
2021/12/02 11:37:27;;;;;;;3.17;1.70;;;6.10;85.40;;;;;;4944484;28;20024;-63
2021/12/02 11:39:58;;;;;;;3.63;1.67;;;6.20;85.40;;;;;;4932317;29;20061;-63
2021/12/02 11:42:24;;;;;;;5.68;1.50;;;6.20;84.80;;;;;;4928449;29;20038;-63
2021/12/02 11:44:49;;;;;;;2.97;1.55;;;6.20;84.90;;;;;;4931510;28;20077;-63
2021/12/02 11:47:16;;;;;;;3.17;1.60;;;6.30;85.30;;;;;;4930278;29;20158;-63
2021/12/02 11:49:41;;;;;;;4.97;1.83;;;6.30;85.10;;;;;;4926524;29;20521;-63
2021/12/02 11:52:10;;;;;;;6.85;1.95;;;6.30;84.30;;;;;;4935458;29;20034;-64
2021/12/02 11:54:36;;;;;;;5.72;1.65;;;6.30;84.30;;;;;;4929718;29;20031;-64
2021/12/02 11:57:03;;;;;;;3.65;1.50;;;6.30;84.10;;;;;;4931894;29;20467;-63
2021/12/02 11:59:28;;;;;;;3.83;1.30;;;6.30;84.00;;;;;;4932165;29;20056;-62
2021/12/02 12:01:59;;;;;;;2.50;1.38;;;6.30;83.50;;;;;;4930296;29;20094;-62
2021/12/02 12:04:24;;;;;;;3.45;2.05;;;6.30;83.60;;;;;;4932104;29;20031;-63
2021/12/02 12:06:54;;;;;;;2.20;1.27;;;6.30;84.10;;;;;;4924704;29;20467;-63
2021/12/02 12:09:21;;;;;;;6.05;2.45;;;6.30;83.20;;;;;;4929306;29;20050;-63
2021/12/02 12:11:54;;;;;;;3.60;1.30;;;6.20;82.60;;;;;;4925674;29;20032;-63
2021/12/02 12:14:41;;;;;;;3.15;1.23;;;6.20;82.40;;;;;;4926460;29;20510;-62
2021/12/02 12:17:11;;;;;;;5.72;1.60;;;6.20;83.00;;;;;;4925400;29;20044;-64
2021/12/02 12:19:45;;;;;;;5.13;1.85;;;6.20;83.40;;;;;;4924981;29;20111;-65
2021/12/02 12:22:23;;;;;;;5.10;1.60;;;6.30;83.30;;;;;;4928184;29;20035;-64
2021/12/02 12:24:54;;;;;;;4.70;1.98;;;6.30;83.10;;;;;;4930696;29;20091;-63
2021/12/02 12:27:26;;;;;;;3.20;1.75;;;6.40;82.90;;;;;;4930220;29;20042;-63
2021/12/02 12:30:01;;;;;;;3.72;1.40;;;6.40;82.40;;;;;;4929375;29;20043;-63
2021/12/02 12:32:53;;;;;;;1.90;1.30;;;6.40;81.50;;;;;;4929177;29;20391;-63
2021/12/02 12:36:13;;;;;;;3.15;1.23;;;6.40;81.40;;;;;;4928559;29;20024;-63
2021/12/02 12:38:33;;;;;;;4.05;1.75;;;6.40;81.60;;;;;;4921710;29;20496;-64
2021/12/02 12:41:10;;;;;;;2.47;1.40;;;6.50;81.50;;;;;;4927450;29;20031;-64
2021/12/02 12:43:44;;;;;;;2.75;1.77;;;6.40;80.30;;;;;;4929075;29;20479;-64
2021/12/02 12:46:26;;;;;;;6.25;2.10;;;6.40;80.10;;;;;;4928696;29;20043;-64
2021/12/02 12:48:55;;;;;;;4.82;2.05;;;6.40;79.30;;;;;;4924609;29;20110;-64
2021/12/02 12:51:29;;;;;;;5.03;1.50;;;6.40;79.90;;;;;;4930879;29;20028;-63
2021/12/02 12:53:57;;;;;;;1.80;1.17;;;6.40;80.20;;;;;;4929110;29;20495;-64
2021/12/02 12:56:40;;;;;;;4.22;1.27;;;6.40;80.70;;;;;;4926700;29;20047;-64
2021/12/02 12:59:14;;;;;;;4.57;1.90;;;6.50;81.10;;;;;;4932491;29;20451;-63
2021/12/02 13:01:53;;;;;;;3.13;1.30;;;6.50;80.00;;;;;;4931365;29;20024;-64
2021/12/02 13:04:21;;;;;;;3.60;1.60;;;6.50;79.90;;;;;;4930210;29;20533;-63
2021/12/02 13:07:15;;;;;;;3.88;1.63;;;6.50;80.10;;;;;;4927393;29;20043;-62
2021/12/02 13:10:08;;;;;;;3.45;1.42;;;6.40;77.40;;;;;;4924561;29;20506;-63
2021/12/02 13:12:37;;;;;;;3.08;1.55;;;6.30;77.80;;;;;;4927901;29;20055;-63
2021/12/02 13:15:05;;;;;;;3.65;1.60;;;6.30;78.60;;;;;;4942285;28;20471;-63
2021/12/02 13:17:48;;;;;;;3.63;1.80;;;6.30;79.00;;;;;;4923823;29;20087;-63
2021/12/02 13:20:31;;;;;;;2.22;1.48;;;6.30;79.90;;;;;;4929848;29;20434;-64
2021/12/02 13:23:11;;;;;;;4.53;2.03;;;6.40;79.90;;;;;;4924207;29;20538;-63
2021/12/02 13:25:44;;;;;;;3.35;1.40;;;6.50;80.00;;;;;;4934429;28;20055;-63
2021/12/02 13:28:39;;;;;;;3.10;1.40;;;6.50;79.30;;;;;;4931422;29;20079;-63